createdAt,value
2018-09-15T00:00:48.658Z,72.00
2018-09-15T00:03:17.019Z,77.40
2018-09-15T00:05:45.394Z,84.20
2018-09-15T00:08:14.154Z,88.40
2018-09-15T00:10:42.743Z,88.60
2018-09-15T00:13:11.717Z,90.00
2018-09-15T00:15:40.354Z,89.10
2018-09-15T00:18:11.969Z,86.90
2018-09-15T00:20:40.972Z,85.40
2018-09-15T00:23:10.927Z,83.40
2018-09-15T00:25:40.014Z,82.30
2018-09-15T00:28:09.307Z,82.00
2018-09-15T00:30:38.379Z,83.90
2018-09-15T00:33:06.780Z,81.60
2018-09-15T00:35:35.986Z,81.10
2018-09-15T00:38:04.387Z,80.40
2018-09-15T00:40:32.797Z,81.80
2018-09-15T00:43:01.200Z,82.50
2018-09-15T00:45:29.966Z,80.20
2018-09-15T00:47:58.575Z,81.10
2018-09-15T00:50:26.966Z,81.40
2018-09-15T00:52:55.656Z,80.90
2018-09-15T00:55:24.351Z,82.80
2018-09-15T00:57:52.790Z,85.60
2018-09-15T01:00:22.030Z,87.00
2018-09-15T01:02:50.661Z,89.60
2018-09-15T01:05:19.038Z,86.80
2018-09-15T01:07:47.750Z,83.40
2018-09-15T01:10:16.214Z,82.50
2018-09-15T01:12:44.599Z,82.20
2018-09-15T01:15:13.285Z,78.80
2018-09-15T01:17:42.190Z,79.00
2018-09-15T01:20:10.938Z,79.20
2018-09-15T01:22:40.143Z,80.60
2018-09-15T01:25:08.538Z,79.10
2018-09-15T01:27:37.211Z,81.60
2018-09-15T01:30:05.775Z,82.10
2018-09-15T01:32:34.146Z,82.60
2018-09-15T01:35:02.530Z,83.10
2018-09-15T01:37:30.903Z,83.80
2018-09-15T01:39:59.510Z,84.50
2018-09-15T01:42:27.902Z,82.70
2018-09-15T01:44:56.530Z,82.50
2018-09-15T01:47:24.911Z,80.70
2018-09-15T01:49:53.627Z,79.40
2018-09-15T01:52:22.023Z,78.90
2018-09-15T01:54:50.378Z,77.90
2018-09-15T01:57:18.759Z,78.10
2018-09-15T01:59:47.387Z,77.40
2018-09-15T02:02:16.270Z,76.70
2018-09-15T02:04:45.262Z,78.80
2018-09-15T02:07:13.630Z,76.30
2018-09-15T02:09:41.994Z,77.30
2018-09-15T02:12:10.369Z,74.70
2018-09-15T02:14:39.085Z,73.90
2018-09-15T02:17:08.050Z,73.70
2018-09-15T02:19:36.735Z,74.20
2018-09-15T02:22:05.833Z,71.30
2018-09-15T02:24:34.471Z,73.40
2018-09-15T02:27:03.202Z,68.30
2018-09-15T02:29:31.591Z,70.20
2018-09-15T02:31:59.956Z,69.10
2018-09-15T02:34:28.691Z,69.20
2018-09-15T02:36:57.671Z,68.20
2018-09-15T02:39:26.027Z,67.40
2018-09-15T02:41:54.418Z,66.20
2018-09-15T02:44:22.768Z,65.80
2018-09-15T02:46:51.139Z,69.60
2018-09-15T02:49:19.506Z,67.00
2018-09-15T02:51:48.158Z,69.90
2018-09-15T02:54:16.799Z,68.60
2018-09-15T02:56:45.262Z,66.00
2018-09-15T02:59:13.959Z,69.50
2018-09-15T03:01:42.553Z,68.40
2018-09-15T03:04:10.928Z,67.20
2018-09-15T03:06:40.228Z,73.40
2018-09-15T03:09:10.186Z,74.90
2018-09-15T03:11:38.647Z,74.00
2018-09-15T03:14:07.302Z,77.20
2018-09-15T03:16:36.138Z,75.40
2018-09-15T03:19:04.849Z,75.80
2018-09-15T03:21:33.256Z,79.50
2018-09-15T03:24:01.636Z,80.30
2018-09-15T03:26:30.336Z,80.20
2018-09-15T03:28:59.212Z,77.20
2018-09-15T03:31:28.050Z,76.10
2018-09-15T03:33:56.445Z,75.60
2018-09-15T03:36:24.826Z,73.40
2018-09-15T03:38:54.205Z,74.10
2018-09-15T03:41:23.210Z,70.80
2018-09-15T03:43:51.535Z,63.50
2018-09-15T03:46:20.215Z,64.80
2018-09-15T03:48:49.239Z,67.30
2018-09-15T03:51:17.954Z,65.00
2018-09-15T03:53:47.218Z,56.80
2018-09-15T03:56:15.575Z,47.40
2018-09-15T03:58:43.999Z,44.40
2018-09-15T04:01:12.657Z,42.90
2018-09-15T04:03:41.342Z,41.20
2018-09-15T04:06:10.026Z,36.50
2018-09-15T04:08:38.426Z,30.30
2018-09-15T04:11:06.922Z,30.30
2018-09-15T04:13:35.575Z,23.70
2018-09-15T04:16:03.958Z,18.90
2018-09-15T04:18:32.610Z,17.80
2018-09-15T04:21:01.623Z,17.10
2018-09-15T04:23:30.346Z,13.30
2018-09-15T04:25:58.726Z,13.00
2018-09-15T04:28:27.494Z,11.80
2018-09-15T04:30:55.845Z,3.50
2018-09-15T04:33:24.215Z,7.10
2018-09-15T04:35:52.571Z,5.80
2018-09-15T04:38:20.927Z,4.40
2018-09-15T04:40:49.283Z,6.10
2018-09-15T04:43:17.638Z,6.10
2018-09-15T04:45:46.755Z,5.70
2018-09-15T04:48:15.119Z,7.40
2018-09-15T04:50:43.798Z,1.00
2018-09-15T04:53:12.442Z,5.30
2018-09-15T04:55:41.074Z,7.00
2018-09-15T04:58:09.757Z,8.20
2018-09-15T05:00:38.443Z,16.50
2018-09-15T05:03:06.880Z,13.20
2018-09-15T05:05:35.530Z,1.00
2018-09-15T05:08:04.186Z,3.60
2018-09-15T05:10:32.540Z,1.00
2018-09-15T05:13:01.251Z,1.00
2018-09-15T05:15:29.599Z,1.00
2018-09-15T05:17:58.297Z,1.00
2018-09-15T05:20:26.862Z,1.00
2018-09-15T05:22:55.832Z,1.00
2018-09-15T05:25:24.523Z,1.00
2018-09-15T05:27:53.602Z,1.00
2018-09-15T05:30:23.155Z,1.00
2018-09-15T05:32:51.770Z,1.00
2018-09-15T05:35:20.146Z,1.00
2018-09-15T05:37:49.214Z,1.00
2018-09-15T05:40:17.562Z,1.00
2018-09-15T05:42:45.906Z,1.00
2018-09-15T05:45:14.258Z,1.00
2018-09-15T05:47:42.696Z,1.00
2018-09-15T05:50:11.314Z,1.00
2018-09-15T05:52:39.695Z,1.00
2018-09-15T05:55:08.406Z,1.00
2018-09-15T05:57:37.091Z,1.00
2018-09-15T06:00:05.966Z,1.00
2018-09-15T06:02:34.326Z,1.00
2018-09-15T06:05:03.003Z,1.00
2018-09-15T06:07:31.418Z,1.00
2018-09-15T06:10:00.327Z,1.00
2018-09-15T06:12:29.011Z,1.00
2018-09-15T06:14:57.386Z,1.00
2018-09-15T06:17:25.729Z,1.00
2018-09-15T06:27:19.750Z,99.90
2018-09-15T06:29:48.636Z,99.90
2018-09-15T06:32:16.994Z,99.90
2018-09-15T06:34:45.386Z,99.90
2018-09-15T06:37:13.786Z,99.90
2018-09-15T06:39:42.166Z,99.90
2018-09-15T06:42:11.346Z,99.90
2018-09-15T06:44:39.722Z,72.50
2018-09-15T06:49:36.382Z,99.90
2018-09-15T06:52:05.299Z,1.00
2018-09-15T06:54:33.846Z,1.00
2018-09-15T06:57:02.213Z,7.80
2018-09-15T06:59:31.376Z,99.90
2018-09-15T07:01:59.743Z,99.90
2018-09-15T07:04:28.350Z,99.90
2018-09-15T07:06:56.768Z,1.00
2018-09-15T07:09:25.399Z,1.00
2018-09-15T07:11:54.048Z,1.00
2018-09-15T07:14:22.766Z,1.00
2018-09-15T07:16:51.730Z,99.90
2018-09-15T07:19:20.421Z,1.00
2018-09-15T07:21:48.784Z,99.90
2018-09-15T07:24:17.470Z,99.90
2018-09-15T07:26:46.879Z,99.90
2018-09-15T07:29:15.574Z,99.90
2018-09-15T07:31:44.452Z,99.90
2018-09-15T07:34:12.832Z,99.90
2018-09-15T07:36:41.222Z,98.10
2018-09-15T07:39:11.123Z,64.50
2018-09-15T07:41:40.026Z,35.50
2018-09-15T07:44:08.455Z,20.30
2018-09-15T07:46:36.806Z,8.70
2018-09-15T07:49:05.857Z,1.00
2018-09-15T07:51:34.357Z,1.00
2018-09-15T07:54:02.919Z,1.00
2018-09-15T07:56:31.274Z,1.00
2018-09-15T07:58:59.651Z,1.00
2018-09-15T08:01:27.992Z,1.00
2018-09-15T08:03:56.403Z,1.00
2018-09-15T08:06:24.779Z,1.00
2018-09-15T08:08:53.154Z,1.00
2018-09-15T08:11:22.122Z,1.00
2018-09-15T08:13:50.509Z,1.00
2018-09-15T08:16:19.138Z,1.00
2018-09-15T08:18:48.046Z,1.00
2018-09-15T08:21:16.923Z,1.00
2018-09-15T08:23:45.810Z,1.00
2018-09-15T08:26:14.440Z,1.00
2018-09-15T08:28:43.302Z,1.00
2018-09-15T08:31:11.966Z,1.00
2018-09-15T08:33:40.332Z,1.00
2018-09-15T08:36:09.746Z,1.00
2018-09-15T08:38:38.735Z,1.00
2018-09-15T08:41:07.207Z,1.00
2018-09-15T08:43:35.623Z,1.00
2018-09-15T08:46:04.284Z,1.00
2018-09-15T08:48:32.667Z,1.00
2018-09-15T08:51:01.347Z,1.00
2018-09-15T08:53:29.714Z,1.00
2018-09-15T08:55:58.410Z,1.00
2018-09-15T08:58:26.785Z,1.00
2018-09-15T09:00:55.399Z,1.00
2018-09-15T09:05:52.338Z,1.00
2018-09-15T09:08:20.698Z,1.00
2018-09-15T09:10:49.155Z,99.90
2018-09-15T09:13:18.083Z,99.90
2018-09-15T09:15:46.458Z,47.40
2018-09-15T09:18:15.100Z,1.00
2018-09-15T09:20:44.053Z,1.00
2018-09-15T09:23:12.727Z,1.00
2018-09-15T09:25:41.098Z,1.00
2018-09-15T09:28:09.727Z,1.00
2018-09-15T09:33:06.537Z,99.90
2018-09-15T09:35:34.874Z,1.00
2018-09-15T09:38:03.823Z,1.00
2018-09-15T09:40:32.802Z,1.00
2018-09-15T09:43:01.512Z,1.00
2018-09-15T09:45:29.851Z,1.00
2018-09-15T09:47:58.458Z,1.00
2018-09-15T09:50:27.447Z,1.00
2018-09-15T09:52:55.820Z,1.00
2018-09-15T09:55:24.611Z,1.00
2018-09-15T09:57:53.293Z,1.00
2018-09-15T10:00:27.005Z,1.00
2018-09-15T10:02:55.380Z,1.00
2018-09-15T10:05:23.751Z,1.00
2018-09-15T10:07:52.376Z,1.00
2018-09-15T10:10:21.020Z,1.00
2018-09-15T10:12:50.015Z,1.00
2018-09-15T10:15:18.723Z,9.50
2018-09-15T10:17:47.234Z,1.00
2018-09-15T10:20:16.339Z,1.00
2018-09-15T10:22:44.739Z,99.90
2018-09-15T10:25:13.121Z,1.00
2018-09-15T10:27:41.492Z,1.00
2018-09-15T10:30:10.343Z,99.90
2018-09-15T10:32:38.818Z,99.90
2018-09-15T10:35:07.519Z,1.00
2018-09-15T10:37:35.875Z,99.90
2018-09-15T10:40:04.306Z,99.90
2018-09-15T10:42:32.661Z,99.90
2018-09-15T10:45:01.053Z,99.90
2018-09-15T10:47:29.810Z,99.90
2018-09-15T10:49:58.563Z,99.90
2018-09-15T10:52:27.729Z,99.90
2018-09-15T10:54:56.095Z,99.90
2018-09-15T10:57:24.483Z,99.90
2018-09-15T10:59:53.093Z,99.90
2018-09-15T11:02:21.734Z,99.90
2018-09-15T11:04:50.114Z,99.90
2018-09-15T11:07:19.720Z,99.90
2018-09-15T11:09:48.343Z,99.90
2018-09-15T11:12:16.706Z,99.90
2018-09-15T11:14:45.307Z,99.90
2018-09-15T11:17:13.694Z,99.90
2018-09-15T11:19:42.060Z,99.90
2018-09-15T11:22:10.410Z,99.90
2018-09-15T11:24:39.706Z,99.90
2018-09-15T11:27:08.639Z,99.90
2018-09-15T11:29:37.256Z,99.90
2018-09-15T11:32:05.674Z,99.90
2018-09-15T11:34:34.074Z,99.90
2018-09-15T11:37:02.467Z,99.90
2018-09-15T11:39:31.159Z,99.90
2018-09-15T11:41:59.514Z,99.90
2018-09-15T11:44:28.076Z,99.90
2018-09-15T11:46:56.947Z,99.90
2018-09-15T11:49:26.255Z,99.90
2018-09-15T11:51:55.388Z,99.90
2018-09-15T11:54:23.820Z,1.00
2018-09-15T11:59:20.290Z,99.90
2018-09-15T12:01:49.221Z,99.90
2018-09-15T12:04:17.571Z,99.90
2018-09-15T12:06:46.475Z,99.90
2018-09-15T12:09:14.850Z,99.90
2018-09-15T12:11:43.771Z,99.90
2018-09-15T12:14:12.219Z,99.90
2018-09-15T12:16:40.870Z,99.90
2018-09-15T12:19:09.594Z,99.90
2018-09-15T12:21:38.223Z,99.90
2018-09-15T12:24:06.590Z,99.90
2018-09-15T12:26:35.250Z,99.90
2018-09-15T12:29:04.231Z,99.90
2018-09-15T12:31:34.350Z,99.90
2018-09-15T12:34:02.719Z,99.90
2018-09-15T12:36:31.614Z,99.90
2018-09-15T12:39:00.526Z,99.90
2018-09-15T12:41:29.395Z,99.90
2018-09-15T12:43:57.851Z,99.90
2018-09-15T12:46:26.814Z,99.90
2018-09-15T12:48:55.166Z,99.90
2018-09-15T12:51:23.779Z,99.90
2018-09-15T12:53:52.162Z,99.90
2018-09-15T12:56:21.302Z,99.90
2018-09-15T12:58:49.766Z,99.90
2018-09-15T13:01:18.147Z,99.90
2018-09-15T13:03:46.855Z,99.90
2018-09-15T13:06:15.259Z,99.90
2018-09-15T13:08:43.714Z,99.90
2018-09-15T13:11:12.107Z,99.90
2018-09-15T13:13:40.990Z,99.90
2018-09-15T13:16:09.387Z,99.90
2018-09-15T13:18:38.294Z,99.90
2018-09-15T13:21:06.707Z,99.90
2018-09-15T13:23:35.732Z,99.90
2018-09-15T13:26:04.099Z,99.90
2018-09-15T13:28:32.494Z,99.90
2018-09-15T13:31:00.875Z,99.90
2018-09-15T13:33:29.511Z,99.90
2018-09-15T13:35:58.378Z,99.90
2018-09-15T13:38:26.763Z,99.90
2018-09-15T13:40:55.819Z,99.90
2018-09-15T13:43:25.159Z,99.90
2018-09-15T13:45:53.539Z,99.90
2018-09-15T13:48:21.886Z,99.90
2018-09-15T13:50:50.250Z,99.90
2018-09-15T13:53:18.947Z,99.90
2018-09-15T13:55:47.542Z,99.90
2018-09-15T13:58:16.174Z,99.90
2018-09-15T14:00:44.772Z,99.90
2018-09-15T14:03:13.142Z,99.90
2018-09-15T14:05:41.514Z,99.90
2018-09-15T14:08:09.897Z,99.90
2018-09-15T14:10:38.888Z,99.90
2018-09-15T14:13:07.214Z,99.90
2018-09-15T14:15:35.653Z,99.90
2018-09-15T14:18:04.458Z,99.90
2018-09-15T14:20:33.432Z,99.90
2018-09-15T14:23:01.838Z,99.90
2018-09-15T14:25:30.704Z,99.90
2018-09-15T14:27:59.283Z,99.90
2018-09-15T14:30:27.686Z,99.90
2018-09-15T14:32:56.041Z,99.90
2018-09-15T14:35:24.419Z,99.90
2018-09-15T14:37:53.106Z,99.90
2018-09-15T14:40:21.563Z,99.90
2018-09-15T14:42:50.475Z,99.90
2018-09-15T14:45:18.862Z,99.90
2018-09-15T14:47:47.547Z,99.90
2018-09-15T14:50:16.264Z,99.90
2018-09-15T14:52:44.980Z,99.90
2018-09-15T14:55:13.435Z,99.90
2018-09-15T14:57:41.750Z,99.90
2018-09-15T15:00:10.384Z,99.90
2018-09-15T15:02:39.158Z,99.90
2018-09-15T15:05:07.612Z,99.90
2018-09-15T15:07:36.007Z,99.90
2018-09-15T15:10:04.690Z,99.90
2018-09-15T15:12:33.371Z,99.90
2018-09-15T15:15:01.802Z,99.90
2018-09-15T15:17:30.158Z,99.90
2018-09-15T15:19:59.325Z,99.90
2018-09-15T15:22:28.130Z,99.90
2018-09-15T15:24:56.488Z,99.90
2018-09-15T15:27:25.174Z,99.90
2018-09-15T15:29:53.563Z,99.90
2018-09-15T15:32:21.936Z,99.90
2018-09-15T15:34:50.783Z,99.90
2018-09-15T15:37:19.564Z,99.90
2018-09-15T15:39:48.334Z,99.90
2018-09-15T15:42:17.679Z,99.90
2018-09-15T15:44:46.067Z,99.90
2018-09-15T15:47:14.434Z,99.90
2018-09-15T15:49:42.844Z,99.90
2018-09-15T15:52:11.318Z,99.90
2018-09-15T15:54:39.955Z,99.90
2018-09-15T15:57:08.585Z,99.90
2018-09-15T15:59:36.975Z,99.90
2018-09-15T16:02:05.387Z,99.90
2018-09-15T16:04:33.821Z,99.90
2018-09-15T16:07:02.145Z,99.90
2018-09-15T16:09:30.775Z,99.90
2018-09-15T16:11:59.423Z,99.90
2018-09-15T16:14:27.979Z,99.90
2018-09-15T16:16:56.654Z,99.90
2018-09-15T16:19:25.011Z,99.90
2018-09-15T16:21:53.494Z,99.90
2018-09-15T16:24:22.198Z,99.90
2018-09-15T16:26:50.859Z,99.90
2018-09-15T16:29:19.491Z,99.90
2018-09-15T16:31:47.854Z,99.90
2018-09-15T16:34:16.261Z,99.90
2018-09-15T16:36:46.095Z,99.90
2018-09-15T16:39:14.442Z,99.90
2018-09-15T16:41:42.846Z,99.90
2018-09-15T16:44:11.238Z,99.90
2018-09-15T16:46:39.609Z,99.90
2018-09-15T16:49:08.350Z,99.90
2018-09-15T16:51:37.199Z,99.90
2018-09-15T16:54:06.414Z,99.90
2018-09-15T16:56:35.302Z,99.90
2018-09-15T16:59:03.944Z,99.90
2018-09-15T17:01:32.308Z,99.90
2018-09-15T17:04:00.671Z,99.90
2018-09-15T17:06:29.079Z,99.90
2018-09-15T17:08:57.475Z,99.90
2018-09-15T17:11:26.827Z,99.90
2018-09-15T17:13:55.211Z,99.90
2018-09-15T17:16:24.166Z,99.90
2018-09-15T17:18:52.897Z,99.90
2018-09-15T17:21:21.289Z,99.90
2018-09-15T17:23:50.210Z,99.90
2018-09-15T17:26:19.189Z,99.90
2018-09-15T17:28:47.893Z,99.90
2018-09-15T17:31:16.582Z,99.90
2018-09-15T17:33:45.218Z,99.90
2018-09-15T17:36:13.618Z,99.90
2018-09-15T17:38:42.331Z,99.90
2018-09-15T17:41:10.691Z,99.90
2018-09-15T17:43:39.062Z,99.90
2018-09-15T17:46:07.469Z,99.90
2018-09-15T17:48:36.110Z,99.90
2018-09-15T17:51:05.166Z,99.90
2018-09-15T17:53:33.551Z,99.90
2018-09-15T17:56:02.275Z,99.90
2018-09-15T17:58:30.971Z,99.90
2018-09-15T18:00:59.360Z,99.90
2018-09-15T18:03:28.092Z,99.90
2018-09-15T18:05:57.228Z,99.90
2018-09-15T18:08:25.580Z,99.90
2018-09-15T18:10:53.971Z,99.90
2018-09-15T18:13:23.295Z,99.90
2018-09-15T18:15:51.683Z,99.90
2018-09-15T18:18:20.082Z,99.90
2018-09-15T18:20:48.455Z,99.90
2018-09-15T18:23:16.820Z,99.90
2018-09-15T18:25:45.460Z,99.90
2018-09-15T18:28:13.917Z,99.90
2018-09-15T18:30:42.271Z,99.90
2018-09-15T18:33:10.632Z,99.90
2018-09-15T18:35:39.023Z,99.90
2018-09-15T18:38:07.702Z,1.00
2018-09-15T18:40:36.695Z,1.00
2018-09-15T18:43:05.589Z,1.00
2018-09-15T18:45:34.195Z,1.00
2018-09-15T18:48:02.750Z,1.00
2018-09-15T18:50:31.485Z,1.00
2018-09-15T18:53:00.438Z,1.00
2018-09-15T18:55:28.799Z,1.00
2018-09-15T18:57:58.098Z,1.00
2018-09-15T19:00:27.365Z,99.90
2018-09-15T19:02:56.447Z,1.00
2018-09-15T19:05:25.395Z,99.90
2018-09-15T19:07:54.310Z,1.00
2018-09-15T19:12:51.066Z,99.90
2018-09-15T19:15:19.417Z,1.00
2018-09-15T19:17:47.801Z,99.90
2018-09-15T19:20:17.054Z,1.00
2018-09-15T19:22:47.319Z,1.00
2018-09-15T19:25:15.688Z,99.90
2018-09-15T19:27:44.067Z,28.20
2018-09-15T19:30:12.431Z,99.90
2018-09-15T19:32:41.050Z,99.90
2018-09-15T19:35:09.443Z,1.00
2018-09-15T19:37:38.079Z,99.90
2018-09-15T19:40:06.611Z,1.00
2018-09-15T19:42:35.734Z,1.00
2018-09-15T19:45:04.381Z,1.00
2018-09-15T19:47:33.967Z,99.90
2018-09-15T19:50:02.367Z,99.90
2018-09-15T19:52:30.738Z,99.90
2018-09-15T19:54:59.115Z,99.90
2018-09-15T19:59:56.082Z,30.50
2018-09-15T20:02:24.691Z,99.90
2018-09-15T20:04:53.092Z,1.00
2018-09-15T20:07:21.746Z,1.00
2018-09-15T20:09:50.139Z,99.90
2018-09-15T20:12:18.819Z,99.90
2018-09-15T20:14:47.167Z,19.30
2018-09-15T20:17:14.719Z,99.90
2018-09-15T20:19:42.006Z,99.90
2018-09-15T20:22:10.390Z,99.90
2018-09-15T20:24:39.763Z,99.90
2018-09-15T20:27:08.147Z,1.00
2018-09-15T20:29:37.110Z,99.90
2018-09-15T20:32:05.484Z,99.90
2018-09-15T20:34:33.891Z,99.90
2018-09-15T20:37:02.243Z,1.00
2018-09-15T20:39:30.607Z,99.90
2018-09-15T20:41:58.975Z,1.00
2018-09-15T20:44:27.323Z,1.00
2018-09-15T20:46:55.706Z,1.00
2018-09-15T20:49:24.092Z,1.00
2018-09-15T20:51:52.451Z,1.00
2018-09-15T20:54:21.419Z,1.00
2018-09-15T20:56:50.397Z,1.00
2018-09-15T20:59:18.750Z,1.00
2018-09-15T21:01:47.126Z,1.00
2018-09-15T21:04:15.773Z,1.00
2018-09-15T21:06:44.375Z,1.00
2018-09-15T21:09:13.002Z,1.00
2018-09-15T21:11:41.387Z,1.00
2018-09-15T21:14:10.112Z,1.00
2018-09-15T21:16:38.545Z,1.00
2018-09-15T21:19:06.930Z,1.00
2018-09-15T21:21:35.674Z,1.00
2018-09-15T21:24:04.080Z,1.00
2018-09-15T21:26:33.304Z,1.00
2018-09-15T21:29:02.722Z,1.00
2018-09-15T21:31:31.133Z,1.00
2018-09-15T21:33:59.826Z,1.00
2018-09-15T21:36:28.447Z,1.00
2018-09-15T21:38:57.126Z,1.00
2018-09-15T21:41:25.514Z,1.00
2018-09-15T21:43:53.900Z,1.00
2018-09-15T21:46:22.270Z,1.00
2018-09-15T21:48:51.254Z,1.00
2018-09-15T21:51:19.595Z,1.00
2018-09-15T21:53:48.453Z,1.00
2018-09-15T21:56:16.856Z,1.00
2018-09-15T21:58:45.486Z,1.00
2018-09-15T22:01:13.838Z,1.00
2018-09-15T22:03:47.792Z,1.00
2018-09-15T22:06:16.409Z,1.00
2018-09-15T22:08:45.043Z,1.00
2018-09-15T22:11:13.432Z,1.00
2018-09-15T22:13:42.058Z,1.00
2018-09-15T22:16:10.703Z,1.00
2018-09-15T22:18:39.111Z,1.00
2018-09-15T22:21:07.503Z,1.00
2018-09-15T22:23:36.154Z,1.00
2018-09-15T22:26:04.555Z,1.00
2018-09-15T22:28:33.346Z,1.00
2018-09-15T22:31:01.900Z,1.00
2018-09-15T22:33:30.296Z,1.00
2018-09-15T22:35:59.254Z,1.00
2018-09-15T22:38:27.935Z,1.00
2018-09-15T22:40:56.923Z,1.00
2018-09-15T22:43:25.336Z,1.00
2018-09-15T22:45:53.707Z,1.00
2018-09-15T22:48:22.435Z,1.00
2018-09-15T22:50:51.006Z,1.00
2018-09-15T22:53:19.375Z,1.00
2018-09-15T22:55:47.759Z,1.00
2018-09-15T22:58:16.107Z,1.00
2018-09-15T23:00:44.478Z,1.00
2018-09-15T23:03:12.866Z,1.00
2018-09-15T23:05:41.837Z,1.00
2018-09-15T23:08:10.582Z,1.00
2018-09-15T23:10:39.191Z,1.00
2018-09-15T23:13:07.546Z,1.00
2018-09-15T23:15:35.882Z,1.00
2018-09-15T23:18:04.527Z,1.00
2018-09-15T23:20:33.190Z,1.00
2018-09-15T23:23:01.730Z,1.00
2018-09-15T23:25:30.326Z,1.00
2018-09-15T23:27:58.678Z,1.00
2018-09-15T23:30:27.457Z,1.00
2018-09-15T23:32:56.083Z,1.00
2018-09-15T23:35:24.435Z,1.00
2018-09-15T23:37:52.799Z,1.00
2018-09-15T23:40:21.297Z,1.10
2018-09-15T23:42:49.659Z,1.00
2018-09-15T23:45:18.650Z,1.00
2018-09-15T23:47:47.042Z,1.00
2018-09-15T23:50:15.610Z,1.00
2018-09-15T23:52:44.507Z,1.00
2018-09-15T23:55:13.231Z,1.00
2018-09-15T23:57:42.059Z,13.30
